sensor_id;sensor_type;location;lat;lon;timestamp;temperature;humidity
34099;DHT22;20374;49.474;10.944;2022-10-18T00:01:41;12.70;99.90
34099;DHT22;20374;49.474;10.944;2022-10-18T00:04:07;12.60;99.90
34099;DHT22;20374;49.474;10.944;2022-10-18T00:06:33;12.60;99.90
34099;DHT22;20374;49.474;10.944;2022-10-18T00:08:59;12.50;99.90
34099;DHT22;20374;49.474;10.944;2022-10-18T00:11:25;12.40;99.90
34099;DHT22;20374;49.474;10.944;2022-10-18T00:13:51;12.40;99.90
34099;DHT22;20374;49.474;10.944;2022-10-18T00:16:17;12.40;99.90
34099;DHT22;20374;49.474;10.944;2022-10-18T00:18:44;12.40;99.90
34099;DHT22;20374;49.474;10.944;2022-10-18T00:21:13;12.40;99.90
34099;DHT22;20374;49.474;10.944;2022-10-18T00:23:39;12.50;99.90
34099;DHT22;20374;49.474;10.944;2022-10-18T00:26:18;12.50;99.90
34099;DHT22;20374;49.474;10.944;2022-10-18T00:28:45;12.50;99.90
34099;DHT22;20374;49.474;10.944;2022-10-18T00:31:16;12.40;99.90
34099;DHT22;20374;49.474;10.944;2022-10-18T00:33:44;12.30;99.90
34099;DHT22;20374;49.474;10.944;2022-10-18T00:36:11;12.30;99.90
34099;DHT22;20374;49.474;10.944;2022-10-18T00:38:37;12.20;99.90
34099;DHT22;20374;49.474;10.944;2022-10-18T00:41:05;12.20;99.90
34099;DHT22;20374;49.474;10.944;2022-10-18T00:43:31;12.20;99.90
34099;DHT22;20374;49.474;10.944;2022-10-18T00:45:57;12.20;99.90
34099;DHT22;20374;49.474;10.944;2022-10-18T00:48:23;12.10;99.90
34099;DHT22;20374;49.474;10.944;2022-10-18T00:50:52;12.10;99.90
34099;DHT22;20374;49.474;10.944;2022-10-18T00:53:20;12.10;99.90
34099;DHT22;20374;49.474;10.944;2022-10-18T00:55:47;12.10;99.90
34099;DHT22;20374;49.474;10.944;2022-10-18T00:58:15;12.10;99.90
34099;DHT22;20374;49.474;10.944;2022-10-18T01:00:42;12.10;99.90
34099;DHT22;20374;49.474;10.944;2022-10-18T01:03:11;12.10;99.90
34099;DHT22;20374;49.474;10.944;2022-10-18T01:05:42;12.10;99.90
34099;DHT22;20374;49.474;10.944;2022-10-18T01:08:30;12.10;99.90
34099;DHT22;20374;49.474;10.944;2022-10-18T01:14:17;12.00;99.90
34099;DHT22;20374;49.474;10.944;2022-10-18T01:22:23;11.90;99.90
34099;DHT22;20374;49.474;10.944;2022-10-18T01:24:58;11.90;99.90
34099;DHT22;20374;49.474;10.944;2022-10-18T01:30:16;12.00;99.90
34099;DHT22;20374;49.474;10.944;2022-10-18T01:32:49;12.00;99.90
34099;DHT22;20374;49.474;10.944;2022-10-18T01:35:22;11.90;99.90
34099;DHT22;20374;49.474;10.944;2022-10-18T01:37:51;11.90;99.90
34099;DHT22;20374;49.474;10.944;2022-10-18T01:40:19;11.80;99.90
34099;DHT22;20374;49.474;10.944;2022-10-18T01:42:48;11.70;99.90
34099;DHT22;20374;49.474;10.944;2022-10-18T01:45:15;11.70;99.90
34099;DHT22;20374;49.474;10.944;2022-10-18T01:47:43;11.70;99.90
34099;DHT22;20374;49.474;10.944;2022-10-18T01:50:10;11.60;99.90
34099;DHT22;20374;49.474;10.944;2022-10-18T01:52:49;11.60;99.90
34099;DHT22;20374;49.474;10.944;2022-10-18T01:55:16;11.60;99.90
34099;DHT22;20374;49.474;10.944;2022-10-18T02:01:02;11.70;99.90
34099;DHT22;20374;49.474;10.944;2022-10-18T02:03:30;11.50;99.90
34099;DHT22;20374;49.474;10.944;2022-10-18T02:06:28;11.60;99.90
34099;DHT22;20374;49.474;10.944;2022-10-18T02:09:01;11.60;99.90
34099;DHT22;20374;49.474;10.944;2022-10-18T02:11:28;11.50;99.90
34099;DHT22;20374;49.474;10.944;2022-10-18T02:14:05;11.50;99.90
34099;DHT22;20374;49.474;10.944;2022-10-18T02:16:39;11.60;99.90
34099;DHT22;20374;49.474;10.944;2022-10-18T02:19:18;11.50;99.90
34099;DHT22;20374;49.474;10.944;2022-10-18T02:21:47;11.50;99.90
34099;DHT22;20374;49.474;10.944;2022-10-18T02:24:13;11.50;99.90
34099;DHT22;20374;49.474;10.944;2022-10-18T02:26:40;11.50;99.90
34099;DHT22;20374;49.474;10.944;2022-10-18T02:29:07;11.50;99.90
34099;DHT22;20374;49.474;10.944;2022-10-18T02:31:46;11.50;99.90
34099;DHT22;20374;49.474;10.944;2022-10-18T02:34:23;11.40;99.90
34099;DHT22;20374;49.474;10.944;2022-10-18T02:36:54;11.50;99.90
34099;DHT22;20374;49.474;10.944;2022-10-18T02:39:35;11.40;99.90
34099;DHT22;20374;49.474;10.944;2022-10-18T02:42:03;11.40;99.90
34099;DHT22;20374;49.474;10.944;2022-10-18T02:44:33;11.40;99.90
34099;DHT22;20374;49.474;10.944;2022-10-18T02:47:00;11.50;99.90
34099;DHT22;20374;49.474;10.944;2022-10-18T02:49:26;11.50;99.90
34099;DHT22;20374;49.474;10.944;2022-10-18T02:51:52;11.50;99.90
34099;DHT22;20374;49.474;10.944;2022-10-18T02:54:18;11.50;99.90
34099;DHT22;20374;49.474;10.944;2022-10-18T02:56:44;11.50;99.90
34099;DHT22;20374;49.474;10.944;2022-10-18T02:59:10;11.50;99.90
34099;DHT22;20374;49.474;10.944;2022-10-18T03:01:36;11.50;99.90
34099;DHT22;20374;49.474;10.944;2022-10-18T03:04:03;11.60;99.90
34099;DHT22;20374;49.474;10.944;2022-10-18T03:06:33;11.50;99.90
34099;DHT22;20374;49.474;10.944;2022-10-18T03:09:05;11.50;99.90
34099;DHT22;20374;49.474;10.944;2022-10-18T03:11:31;11.50;99.90
34099;DHT22;20374;49.474;10.944;2022-10-18T03:13:57;11.60;99.90
34099;DHT22;20374;49.474;10.944;2022-10-18T03:16:23;11.50;99.90
34099;DHT22;20374;49.474;10.944;2022-10-18T03:18:49;11.50;99.90
34099;DHT22;20374;49.474;10.944;2022-10-18T03:21:15;11.50;99.90
34099;DHT22;20374;49.474;10.944;2022-10-18T03:23:41;11.40;99.90
34099;DHT22;20374;49.474;10.944;2022-10-18T03:26:08;11.30;99.90
34099;DHT22;20374;49.474;10.944;2022-10-18T03:28:34;11.20;99.90
34099;DHT22;20374;49.474;10.944;2022-10-18T03:31:01;11.20;99.90
34099;DHT22;20374;49.474;10.944;2022-10-18T03:33:27;11.20;99.90
34099;DHT22;20374;49.474;10.944;2022-10-18T03:35:53;11.20;99.90
34099;DHT22;20374;49.474;10.944;2022-10-18T03:38:19;11.20;99.90
34099;DHT22;20374;49.474;10.944;2022-10-18T03:40:45;11.20;99.90
34099;DHT22;20374;49.474;10.944;2022-10-18T03:43:11;11.20;99.90
34099;DHT22;20374;49.474;10.944;2022-10-18T03:45:37;11.20;99.90
34099;DHT22;20374;49.474;10.944;2022-10-18T03:48:04;11.30;99.90
34099;DHT22;20374;49.474;10.944;2022-10-18T03:50:30;11.30;99.90
34099;DHT22;20374;49.474;10.944;2022-10-18T03:52:56;11.30;99.90
34099;DHT22;20374;49.474;10.944;2022-10-18T03:55:22;11.30;99.90
34099;DHT22;20374;49.474;10.944;2022-10-18T03:57:48;11.40;99.90
34099;DHT22;20374;49.474;10.944;2022-10-18T04:00:14;11.40;99.90
34099;DHT22;20374;49.474;10.944;2022-10-18T04:02:40;11.30;99.90
34099;DHT22;20374;49.474;10.944;2022-10-18T04:05:06;11.40;99.90
34099;DHT22;20374;49.474;10.944;2022-10-18T04:07:33;11.40;99.90
34099;DHT22;20374;49.474;10.944;2022-10-18T04:10:00;11.50;99.90
34099;DHT22;20374;49.474;10.944;2022-10-18T04:12:26;11.50;99.90
34099;DHT22;20374;49.474;10.944;2022-10-18T04:14:52;11.50;99.90
34099;DHT22;20374;49.474;10.944;2022-10-18T04:17:18;11.60;99.90
34099;DHT22;20374;49.474;10.944;2022-10-18T04:19:44;11.60;99.90
34099;DHT22;20374;49.474;10.944;2022-10-18T04:22:10;11.60;99.90
34099;DHT22;20374;49.474;10.944;2022-10-18T04:24:39;11.60;99.90
34099;DHT22;20374;49.474;10.944;2022-10-18T04:27:06;11.70;99.90
34099;DHT22;20374;49.474;10.944;2022-10-18T04:29:32;11.70;99.90
34099;DHT22;20374;49.474;10.944;2022-10-18T04:31:59;11.70;99.90
34099;DHT22;20374;49.474;10.944;2022-10-18T04:34:25;11.70;99.90
34099;DHT22;20374;49.474;10.944;2022-10-18T04:36:51;11.70;99.90
34099;DHT22;20374;49.474;10.944;2022-10-18T04:39:17;11.70;99.90
34099;DHT22;20374;49.474;10.944;2022-10-18T04:41:43;11.70;99.90
34099;DHT22;20374;49.474;10.944;2022-10-18T04:44:09;11.60;99.90
34099;DHT22;20374;49.474;10.944;2022-10-18T04:46:34;11.60;99.90
34099;DHT22;20374;49.474;10.944;2022-10-18T04:49:00;11.60;99.90
34099;DHT22;20374;49.474;10.944;2022-10-18T04:51:27;11.60;99.90
34099;DHT22;20374;49.474;10.944;2022-10-18T04:53:53;11.60;99.90
34099;DHT22;20374;49.474;10.944;2022-10-18T04:56:19;11.60;99.90
34099;DHT22;20374;49.474;10.944;2022-10-18T04:58:45;11.60;99.90
34099;DHT22;20374;49.474;10.944;2022-10-18T05:01:11;11.60;99.90
34099;DHT22;20374;49.474;10.944;2022-10-18T05:03:38;11.60;99.90
34099;DHT22;20374;49.474;10.944;2022-10-18T05:06:04;11.60;99.90
34099;DHT22;20374;49.474;10.944;2022-10-18T05:08:32;11.60;99.90
34099;DHT22;20374;49.474;10.944;2022-10-18T05:10:58;11.60;99.90
34099;DHT22;20374;49.474;10.944;2022-10-18T05:13:25;11.70;99.90
34099;DHT22;20374;49.474;10.944;2022-10-18T05:15:51;11.80;99.90
34099;DHT22;20374;49.474;10.944;2022-10-18T05:18:17;11.80;99.90
34099;DHT22;20374;49.474;10.944;2022-10-18T05:20:47;11.80;99.90
34099;DHT22;20374;49.474;10.944;2022-10-18T05:23:13;11.90;99.90
34099;DHT22;20374;49.474;10.944;2022-10-18T05:25:42;11.90;99.90
34099;DHT22;20374;49.474;10.944;2022-10-18T05:28:09;12.00;99.90
34099;DHT22;20374;49.474;10.944;2022-10-18T05:30:39;12.00;99.90
34099;DHT22;20374;49.474;10.944;2022-10-18T05:33:06;12.00;99.90
34099;DHT22;20374;49.474;10.944;2022-10-18T05:35:32;11.90;99.90
34099;DHT22;20374;49.474;10.944;2022-10-18T05:38:00;11.90;99.90
34099;DHT22;20374;49.474;10.944;2022-10-18T05:40:26;11.90;99.90
34099;DHT22;20374;49.474;10.944;2022-10-18T05:42:52;11.90;99.90
34099;DHT22;20374;49.474;10.944;2022-10-18T05:45:18;11.90;99.90
34099;DHT22;20374;49.474;10.944;2022-10-18T05:47:44;11.90;99.90
34099;DHT22;20374;49.474;10.944;2022-10-18T05:50:10;12.00;99.90
34099;DHT22;20374;49.474;10.944;2022-10-18T05:52:36;12.00;99.90
34099;DHT22;20374;49.474;10.944;2022-10-18T05:55:02;12.00;99.90
34099;DHT22;20374;49.474;10.944;2022-10-18T05:57:28;12.00;99.90
34099;DHT22;20374;49.474;10.944;2022-10-18T05:59:54;12.00;99.90
34099;DHT22;20374;49.474;10.944;2022-10-18T06:02:20;12.10;99.90
34099;DHT22;20374;49.474;10.944;2022-10-18T06:04:45;12.10;99.90
34099;DHT22;20374;49.474;10.944;2022-10-18T06:07:11;12.20;99.90
34099;DHT22;20374;49.474;10.944;2022-10-18T06:09:37;12.10;99.90
34099;DHT22;20374;49.474;10.944;2022-10-18T06:12:04;12.20;99.90
34099;DHT22;20374;49.474;10.944;2022-10-18T06:14:30;12.10;99.90
34099;DHT22;20374;49.474;10.944;2022-10-18T06:16:56;12.20;99.90
34099;DHT22;20374;49.474;10.944;2022-10-18T06:19:22;12.20;99.90
34099;DHT22;20374;49.474;10.944;2022-10-18T06:21:48;12.30;99.90
34099;DHT22;20374;49.474;10.944;2022-10-18T06:24:14;12.30;99.90
34099;DHT22;20374;49.474;10.944;2022-10-18T06:26:40;12.40;99.90
34099;DHT22;20374;49.474;10.944;2022-10-18T06:29:06;12.40;99.90
34099;DHT22;20374;49.474;10.944;2022-10-18T06:31:32;12.50;99.90
34099;DHT22;20374;49.474;10.944;2022-10-18T06:33:58;12.50;99.90
34099;DHT22;20374;49.474;10.944;2022-10-18T06:36:24;12.50;99.90
34099;DHT22;20374;49.474;10.944;2022-10-18T06:38:50;12.60;99.90
34099;DHT22;20374;49.474;10.944;2022-10-18T06:41:16;12.50;99.90
34099;DHT22;20374;49.474;10.944;2022-10-18T06:43:48;12.50;99.90
34099;DHT22;20374;49.474;10.944;2022-10-18T06:46:14;12.60;99.90
34099;DHT22;20374;49.474;10.944;2022-10-18T06:48:40;12.60;99.90
34099;DHT22;20374;49.474;10.944;2022-10-18T06:51:07;12.60;99.90
34099;DHT22;20374;49.474;10.944;2022-10-18T06:53:37;12.60;99.90
34099;DHT22;20374;49.474;10.944;2022-10-18T06:56:14;12.50;99.90
34099;DHT22;20374;49.474;10.944;2022-10-18T06:58:40;12.60;99.90
34099;DHT22;20374;49.474;10.944;2022-10-18T07:01:07;12.60;99.90
34099;DHT22;20374;49.474;10.944;2022-10-18T07:03:34;12.80;99.90
34099;DHT22;20374;49.474;10.944;2022-10-18T07:06:02;12.80;99.90
34099;DHT22;20374;49.474;10.944;2022-10-18T07:08:28;12.90;99.90
34099;DHT22;20374;49.474;10.944;2022-10-18T07:10:54;13.00;99.90
34099;DHT22;20374;49.474;10.944;2022-10-18T07:13:20;13.00;99.90
34099;DHT22;20374;49.474;10.944;2022-10-18T07:15:46;12.90;99.90
34099;DHT22;20374;49.474;10.944;2022-10-18T07:18:12;13.00;99.90
34099;DHT22;20374;49.474;10.944;2022-10-18T07:20:38;12.90;99.90
34099;DHT22;20374;49.474;10.944;2022-10-18T07:23:04;13.10;99.90
34099;DHT22;20374;49.474;10.944;2022-10-18T07:25:33;13.10;99.90
34099;DHT22;20374;49.474;10.944;2022-10-18T07:27:59;13.10;99.90
34099;DHT22;20374;49.474;10.944;2022-10-18T07:30:25;13.10;99.90
34099;DHT22;20374;49.474;10.944;2022-10-18T07:32:51;13.20;99.90
34099;DHT22;20374;49.474;10.944;2022-10-18T07:35:17;13.30;99.90
34099;DHT22;20374;49.474;10.944;2022-10-18T07:37:43;13.40;99.90
34099;DHT22;20374;49.474;10.944;2022-10-18T07:40:09;13.40;99.90
34099;DHT22;20374;49.474;10.944;2022-10-18T07:42:36;13.50;99.90
34099;DHT22;20374;49.474;10.944;2022-10-18T07:45:03;13.60;99.90
34099;DHT22;20374;49.474;10.944;2022-10-18T07:47:29;13.90;99.90
34099;DHT22;20374;49.474;10.944;2022-10-18T07:49:55;14.10;99.90
34099;DHT22;20374;49.474;10.944;2022-10-18T07:52:20;14.20;99.90
34099;DHT22;20374;49.474;10.944;2022-10-18T07:54:46;14.20;99.90
34099;DHT22;20374;49.474;10.944;2022-10-18T07:57:12;14.20;99.90
34099;DHT22;20374;49.474;10.944;2022-10-18T07:59:38;14.20;99.90
34099;DHT22;20374;49.474;10.944;2022-10-18T08:02:04;14.30;99.90
34099;DHT22;20374;49.474;10.944;2022-10-18T08:04:30;14.40;99.90
34099;DHT22;20374;49.474;10.944;2022-10-18T08:06:56;14.50;99.90
34099;DHT22;20374;49.474;10.944;2022-10-18T08:09:22;14.70;99.90
34099;DHT22;20374;49.474;10.944;2022-10-18T08:11:48;14.80;99.90
34099;DHT22;20374;49.474;10.944;2022-10-18T08:14:14;15.00;99.90
34099;DHT22;20374;49.474;10.944;2022-10-18T08:16:39;15.20;99.90
34099;DHT22;20374;49.474;10.944;2022-10-18T08:19:05;15.20;99.90
34099;DHT22;20374;49.474;10.944;2022-10-18T08:21:31;15.30;99.90
34099;DHT22;20374;49.474;10.944;2022-10-18T08:23:57;15.40;99.90
34099;DHT22;20374;49.474;10.944;2022-10-18T08:26:23;15.50;99.90
34099;DHT22;20374;49.474;10.944;2022-10-18T08:28:49;15.60;99.90
34099;DHT22;20374;49.474;10.944;2022-10-18T08:31:16;15.70;99.90
34099;DHT22;20374;49.474;10.944;2022-10-18T08:33:43;15.80;99.90
34099;DHT22;20374;49.474;10.944;2022-10-18T08:36:12;15.90;99.90
34099;DHT22;20374;49.474;10.944;2022-10-18T08:38:39;16.00;99.90
34099;DHT22;20374;49.474;10.944;2022-10-18T08:46:40;16.10;99.90
34099;DHT22;20374;49.474;10.944;2022-10-18T08:49:11;16.20;99.90
34099;DHT22;20374;49.474;10.944;2022-10-18T08:51:44;16.40;99.90
34099;DHT22;20374;49.474;10.944;2022-10-18T08:54:21;16.50;99.90
34099;DHT22;20374;49.474;10.944;2022-10-18T08:56:59;16.70;99.90
34099;DHT22;20374;49.474;10.944;2022-10-18T08:59:30;17.00;99.90
34099;DHT22;20374;49.474;10.944;2022-10-18T09:02:05;17.20;99.90
34099;DHT22;20374;49.474;10.944;2022-10-18T09:13:04;17.60;99.90
34099;DHT22;20374;49.474;10.944;2022-10-18T09:18:50;18.00;99.90
34099;DHT22;20374;49.474;10.944;2022-10-18T09:21:20;18.20;99.90
34099;DHT22;20374;49.474;10.944;2022-10-18T09:23:49;18.40;99.90
34099;DHT22;20374;49.474;10.944;2022-10-18T09:26:18;18.60;99.90
34099;DHT22;20374;49.474;10.944;2022-10-18T09:34:56;19.10;99.90
34099;DHT22;20374;49.474;10.944;2022-10-18T09:37:24;19.10;99.90
34099;DHT22;20374;49.474;10.944;2022-10-18T09:39:59;19.30;99.90
34099;DHT22;20374;49.474;10.944;2022-10-18T09:42:30;19.30;99.90
34099;DHT22;20374;49.474;10.944;2022-10-18T09:45:28;19.30;99.90
34099;DHT22;20374;49.474;10.944;2022-10-18T09:50:54;19.40;99.90
34099;DHT22;20374;49.474;10.944;2022-10-18T09:56:17;19.80;99.90
34099;DHT22;20374;49.474;10.944;2022-10-18T09:59:31;19.90;99.90
34099;DHT22;20374;49.474;10.944;2022-10-18T10:02:16;20.00;99.90
34099;DHT22;20374;49.474;10.944;2022-10-18T10:04:43;20.00;99.90
34099;DHT22;20374;49.474;10.944;2022-10-18T10:07:32;20.00;99.90
34099;DHT22;20374;49.474;10.944;2022-10-18T10:12:41;19.70;99.90
34099;DHT22;20374;49.474;10.944;2022-10-18T10:15:25;19.70;99.90
34099;DHT22;20374;49.474;10.944;2022-10-18T10:18:18;19.60;99.90
34099;DHT22;20374;49.474;10.944;2022-10-18T10:20:50;19.50;99.90
34099;DHT22;20374;49.474;10.944;2022-10-18T10:23:35;19.50;99.90
34099;DHT22;20374;49.474;10.944;2022-10-18T10:26:26;19.40;99.90
34099;DHT22;20374;49.474;10.944;2022-10-18T10:28:53;19.40;99.90
34099;DHT22;20374;49.474;10.944;2022-10-18T10:34:01;19.40;99.90
34099;DHT22;20374;49.474;10.944;2022-10-18T10:36:28;19.40;99.90
34099;DHT22;20374;49.474;10.944;2022-10-18T10:39:27;19.40;99.90
34099;DHT22;20374;49.474;10.944;2022-10-18T10:41:58;19.30;99.90
34099;DHT22;20374;49.474;10.944;2022-10-18T10:44:28;19.10;99.90
34099;DHT22;20374;49.474;10.944;2022-10-18T10:46:55;19.00;99.90
34099;DHT22;20374;49.474;10.944;2022-10-18T10:49:24;18.80;99.90
34099;DHT22;20374;49.474;10.944;2022-10-18T10:52:02;18.60;99.90
34099;DHT22;20374;49.474;10.944;2022-10-18T10:54:30;18.50;99.90
34099;DHT22;20374;49.474;10.944;2022-10-18T10:57:20;18.40;99.90
34099;DHT22;20374;49.474;10.944;2022-10-18T10:59:49;18.30;99.90
34099;DHT22;20374;49.474;10.944;2022-10-18T11:04:53;18.20;99.90
34099;DHT22;20374;49.474;10.944;2022-10-18T11:07:39;18.10;99.90
34099;DHT22;20374;49.474;10.944;2022-10-18T11:12:42;18.00;99.90
34099;DHT22;20374;49.474;10.944;2022-10-18T11:15:19;18.00;99.90
34099;DHT22;20374;49.474;10.944;2022-10-18T11:20:36;17.40;99.90
34099;DHT22;20374;49.474;10.944;2022-10-18T11:23:11;17.10;99.90
34099;DHT22;20374;49.474;10.944;2022-10-18T11:39:47;16.40;99.90
34099;DHT22;20374;49.474;10.944;2022-10-18T11:48:02;16.50;99.90
34099;DHT22;20374;49.474;10.944;2022-10-18T11:51:02;16.50;99.90
34099;DHT22;20374;49.474;10.944;2022-10-18T11:53:33;16.60;99.90
34099;DHT22;20374;49.474;10.944;2022-10-18T12:06:37;16.70;99.90
34099;DHT22;20374;49.474;10.944;2022-10-18T12:11:44;16.70;99.90
34099;DHT22;20374;49.474;10.944;2022-10-18T12:14:34;16.70;99.90
34099;DHT22;20374;49.474;10.944;2022-10-18T12:17:05;16.70;99.90
34099;DHT22;20374;49.474;10.944;2022-10-18T12:19:33;16.80;99.90
34099;DHT22;20374;49.474;10.944;2022-10-18T12:22:21;16.80;99.90
34099;DHT22;20374;49.474;10.944;2022-10-18T12:24:48;16.80;99.90
34099;DHT22;20374;49.474;10.944;2022-10-18T12:27:15;16.80;99.90
34099;DHT22;20374;49.474;10.944;2022-10-18T12:29:49;16.80;99.90
34099;DHT22;20374;49.474;10.944;2022-10-18T12:32:23;16.90;99.90
34099;DHT22;20374;49.474;10.944;2022-10-18T12:35:04;16.90;99.90
34099;DHT22;20374;49.474;10.944;2022-10-18T12:42:52;17.10;99.90
34099;DHT22;20374;49.474;10.944;2022-10-18T12:45:30;17.10;99.90
34099;DHT22;20374;49.474;10.944;2022-10-18T12:48:01;17.10;99.90
34099;DHT22;20374;49.474;10.944;2022-10-18T12:50:36;17.10;99.90
34099;DHT22;20374;49.474;10.944;2022-10-18T12:55:39;17.10;99.90
34099;DHT22;20374;49.474;10.944;2022-10-18T13:21:16;17.30;99.90
34099;DHT22;20374;49.474;10.944;2022-10-18T13:23:59;17.20;99.90
34099;DHT22;20374;49.474;10.944;2022-10-18T13:31:53;17.30;99.90
34099;DHT22;20374;49.474;10.944;2022-10-18T13:34:29;17.30;99.90
34099;DHT22;20374;49.474;10.944;2022-10-18T13:37:05;17.20;99.90
34099;DHT22;20374;49.474;10.944;2022-10-18T13:39:43;17.20;99.90
34099;DHT22;20374;49.474;10.944;2022-10-18T13:42:27;17.10;99.90
34099;DHT22;20374;49.474;10.944;2022-10-18T13:44:54;17.10;99.90
34099;DHT22;20374;49.474;10.944;2022-10-18T13:47:39;17.10;99.90
34099;DHT22;20374;49.474;10.944;2022-10-18T13:53:19;17.10;99.90
34099;DHT22;20374;49.474;10.944;2022-10-18T14:01:45;17.20;99.90
34099;DHT22;20374;49.474;10.944;2022-10-18T14:04:33;17.20;99.90
34099;DHT22;20374;49.474;10.944;2022-10-18T14:07:04;17.20;99.90
34099;DHT22;20374;49.474;10.944;2022-10-18T14:09:43;17.10;99.90
34099;DHT22;20374;49.474;10.944;2022-10-18T14:15:18;17.10;99.90
34099;DHT22;20374;49.474;10.944;2022-10-18T14:17:49;17.20;99.90
34099;DHT22;20374;49.474;10.944;2022-10-18T14:20:38;17.20;99.90
34099;DHT22;20374;49.474;10.944;2022-10-18T14:23:24;17.20;99.90
34099;DHT22;20374;49.474;10.944;2022-10-18T14:26:08;17.30;99.90
34099;DHT22;20374;49.474;10.944;2022-10-18T14:28:36;17.30;99.90
34099;DHT22;20374;49.474;10.944;2022-10-18T14:31:05;17.40;99.90
34099;DHT22;20374;49.474;10.944;2022-10-18T14:33:35;17.40;99.90
34099;DHT22;20374;49.474;10.944;2022-10-18T14:36:05;17.40;99.90
34099;DHT22;20374;49.474;10.944;2022-10-18T14:38:33;17.30;99.90
34099;DHT22;20374;49.474;10.944;2022-10-18T14:41:14;17.30;99.90
34099;DHT22;20374;49.474;10.944;2022-10-18T14:43:41;17.30;99.90
34099;DHT22;20374;49.474;10.944;2022-10-18T14:46:09;17.30;99.90
34099;DHT22;20374;49.474;10.944;2022-10-18T14:48:35;17.30;99.90
34099;DHT22;20374;49.474;10.944;2022-10-18T14:51:02;17.30;99.90
34099;DHT22;20374;49.474;10.944;2022-10-18T14:53:36;17.30;99.90
34099;DHT22;20374;49.474;10.944;2022-10-18T14:56:03;17.40;99.90
34099;DHT22;20374;49.474;10.944;2022-10-18T14:58:30;17.40;99.90
34099;DHT22;20374;49.474;10.944;2022-10-18T15:00:58;17.40;99.90
34099;DHT22;20374;49.474;10.944;2022-10-18T15:03:24;17.40;99.90
34099;DHT22;20374;49.474;10.944;2022-10-18T15:05:59;17.40;99.90
34099;DHT22;20374;49.474;10.944;2022-10-18T15:08:37;17.30;99.90
34099;DHT22;20374;49.474;10.944;2022-10-18T15:11:04;17.30;99.90
34099;DHT22;20374;49.474;10.944;2022-10-18T15:13:31;17.20;99.90
34099;DHT22;20374;49.474;10.944;2022-10-18T15:15:59;17.20;99.90
34099;DHT22;20374;49.474;10.944;2022-10-18T15:18:26;17.20;99.90
34099;DHT22;20374;49.474;10.944;2022-10-18T15:21:21;17.20;99.90
34099;DHT22;20374;49.474;10.944;2022-10-18T15:23:48;17.20;99.90
34099;DHT22;20374;49.474;10.944;2022-10-18T15:26:23;17.10;99.90
34099;DHT22;20374;49.474;10.944;2022-10-18T15:28:51;17.10;99.90
34099;DHT22;20374;49.474;10.944;2022-10-18T15:31:34;17.10;99.90
34099;DHT22;20374;49.474;10.944;2022-10-18T15:34:26;17.10;99.90
34099;DHT22;20374;49.474;10.944;2022-10-18T15:36:54;17.00;99.90
34099;DHT22;20374;49.474;10.944;2022-10-18T15:39:23;17.00;99.90
34099;DHT22;20374;49.474;10.944;2022-10-18T15:46:46;16.90;99.90
34099;DHT22;20374;49.474;10.944;2022-10-18T15:54:54;16.80;99.90
34099;DHT22;20374;49.474;10.944;2022-10-18T15:57:21;16.70;99.90
34099;DHT22;20374;49.474;10.944;2022-10-18T16:00:11;16.80;99.90
34099;DHT22;20374;49.474;10.944;2022-10-18T16:02:41;16.70;99.90
34099;DHT22;20374;49.474;10.944;2022-10-18T16:05:13;16.70;99.90
34099;DHT22;20374;49.474;10.944;2022-10-18T16:07:41;16.70;99.90
34099;DHT22;20374;49.474;10.944;2022-10-18T16:10:13;16.70;99.90
34099;DHT22;20374;49.474;10.944;2022-10-18T16:12:40;16.60;99.90
34099;DHT22;20374;49.474;10.944;2022-10-18T16:15:06;16.60;99.90
34099;DHT22;20374;49.474;10.944;2022-10-18T16:17:32;16.60;99.90
34099;DHT22;20374;49.474;10.944;2022-10-18T16:19:58;16.50;99.90
34099;DHT22;20374;49.474;10.944;2022-10-18T16:22:24;16.50;99.90
34099;DHT22;20374;49.474;10.944;2022-10-18T16:24:50;16.50;99.90
34099;DHT22;20374;49.474;10.944;2022-10-18T16:27:17;16.40;99.90
34099;DHT22;20374;49.474;10.944;2022-10-18T16:29:43;16.40;99.90
34099;DHT22;20374;49.474;10.944;2022-10-18T16:32:09;16.30;99.90
34099;DHT22;20374;49.474;10.944;2022-10-18T16:34:35;16.30;99.90
34099;DHT22;20374;49.474;10.944;2022-10-18T16:37:01;16.30;99.90
34099;DHT22;20374;49.474;10.944;2022-10-18T16:39:27;16.20;99.90
34099;DHT22;20374;49.474;10.944;2022-10-18T16:41:54;16.20;99.90
34099;DHT22;20374;49.474;10.944;2022-10-18T16:44:20;16.20;99.90
34099;DHT22;20374;49.474;10.944;2022-10-18T16:46:46;16.10;99.90
34099;DHT22;20374;49.474;10.944;2022-10-18T16:49:20;16.10;99.90
34099;DHT22;20374;49.474;10.944;2022-10-18T16:51:49;16.10;99.90
34099;DHT22;20374;49.474;10.944;2022-10-18T16:54:15;16.10;99.90
34099;DHT22;20374;49.474;10.944;2022-10-18T16:56:41;16.00;99.90
34099;DHT22;20374;49.474;10.944;2022-10-18T16:59:16;16.00;99.90
34099;DHT22;20374;49.474;10.944;2022-10-18T17:01:44;15.90;99.90
34099;DHT22;20374;49.474;10.944;2022-10-18T17:04:10;15.90;99.90
34099;DHT22;20374;49.474;10.944;2022-10-18T17:06:36;15.90;99.90
34099;DHT22;20374;49.474;10.944;2022-10-18T17:09:02;15.90;99.90
34099;DHT22;20374;49.474;10.944;2022-10-18T17:11:28;15.90;99.90
34099;DHT22;20374;49.474;10.944;2022-10-18T17:13:54;15.90;99.90
34099;DHT22;20374;49.474;10.944;2022-10-18T17:16:27;15.90;99.90
34099;DHT22;20374;49.474;10.944;2022-10-18T17:18:54;15.90;99.90
34099;DHT22;20374;49.474;10.944;2022-10-18T17:21:21;15.90;99.90
34099;DHT22;20374;49.474;10.944;2022-10-18T17:23:48;15.90;99.90
34099;DHT22;20374;49.474;10.944;2022-10-18T17:26:16;15.90;99.90
34099;DHT22;20374;49.474;10.944;2022-10-18T17:28:42;15.80;99.90
34099;DHT22;20374;49.474;10.944;2022-10-18T17:31:13;15.80;99.90
34099;DHT22;20374;49.474;10.944;2022-10-18T17:33:39;15.80;99.90
34099;DHT22;20374;49.474;10.944;2022-10-18T17:36:05;15.80;99.90
34099;DHT22;20374;49.474;10.944;2022-10-18T17:38:31;15.80;99.90
34099;DHT22;20374;49.474;10.944;2022-10-18T17:40:57;15.90;99.90
34099;DHT22;20374;49.474;10.944;2022-10-18T17:43:23;15.90;99.90
34099;DHT22;20374;49.474;10.944;2022-10-18T17:45:54;15.90;99.90
34099;DHT22;20374;49.474;10.944;2022-10-18T17:48:20;15.90;99.90
34099;DHT22;20374;49.474;10.944;2022-10-18T17:50:46;15.90;99.90
34099;DHT22;20374;49.474;10.944;2022-10-18T17:53:12;15.90;99.90
34099;DHT22;20374;49.474;10.944;2022-10-18T17:55:39;15.90;99.90
34099;DHT22;20374;49.474;10.944;2022-10-18T17:58:05;15.90;99.90
34099;DHT22;20374;49.474;10.944;2022-10-18T18:00:31;15.90;99.90